createdAt,value
2018-10-18T00:00:44.037Z,39.55
2018-10-18T00:03:14.913Z,38.92
2018-10-18T00:05:45.714Z,40.30
2018-10-18T00:08:16.777Z,39.70
2018-10-18T00:10:47.670Z,36.98
2018-10-18T00:13:18.627Z,38.73
2018-10-18T00:15:49.261Z,37.23
2018-10-18T00:18:19.895Z,35.68
2018-10-18T00:20:50.523Z,36.83
2018-10-18T00:23:21.193Z,37.58
2018-10-18T00:25:51.865Z,36.95
2018-10-18T00:28:22.690Z,32.70
2018-10-18T00:30:53.332Z,37.08
2018-10-18T00:33:23.981Z,37.28
2018-10-18T00:35:54.714Z,34.95
2018-10-18T00:38:25.546Z,38.98
2018-10-18T00:40:56.353Z,36.35
2018-10-18T00:43:27.346Z,37.15
2018-10-18T00:45:57.974Z,36.15
2018-10-18T00:48:28.630Z,38.30
2018-10-18T00:50:59.245Z,36.68
2018-10-18T00:53:29.881Z,37.15
2018-10-18T00:56:00.600Z,36.20
2018-10-18T00:58:31.394Z,36.58
2018-10-18T01:01:02.033Z,37.50
2018-10-18T01:03:32.645Z,35.65
2018-10-18T01:06:03.335Z,36.03
2018-10-18T01:08:34.140Z,36.77
2018-10-18T01:11:05.128Z,38.45
2018-10-18T01:13:35.946Z,35.28
2018-10-18T01:16:06.622Z,35.83
2018-10-18T01:18:37.262Z,36.42
2018-10-18T01:21:07.897Z,35.23
2018-10-18T01:23:38.541Z,37.58
2018-10-18T01:26:09.283Z,36.45
2018-10-18T01:28:40.014Z,35.63
2018-10-18T01:31:10.965Z,34.25
2018-10-18T01:33:41.622Z,34.45
2018-10-18T01:36:12.292Z,35.10
2018-10-18T01:38:43.101Z,32.75
2018-10-18T01:41:13.722Z,33.28
2018-10-18T01:43:44.353Z,37.58
2018-10-18T01:46:14.981Z,37.10
2018-10-18T01:48:45.629Z,37.95
2018-10-18T01:51:16.246Z,38.35
2018-10-18T01:53:46.897Z,38.85
2018-10-18T01:56:17.608Z,37.73
2018-10-18T01:58:48.349Z,38.70
2018-10-18T02:01:18.977Z,39.98
2018-10-18T02:03:49.618Z,38.92
2018-10-18T02:06:20.226Z,39.00
2018-10-18T02:08:50.867Z,40.43
2018-10-18T02:11:21.493Z,42.45
2018-10-18T02:13:52.150Z,40.52
2018-10-18T02:16:22.772Z,42.13
2018-10-18T02:18:53.457Z,39.98
2018-10-18T02:21:24.613Z,38.10
2018-10-18T02:23:55.473Z,35.92
2018-10-18T02:26:26.585Z,38.60
2018-10-18T02:28:57.250Z,39.58
2018-10-18T02:31:27.902Z,38.10
2018-10-18T02:33:58.494Z,37.93
2018-10-18T02:36:29.486Z,41.90
2018-10-18T02:39:00.107Z,39.25
2018-10-18T02:41:30.969Z,39.00
2018-10-18T02:44:01.578Z,35.88
2018-10-18T02:46:32.218Z,36.42
2018-10-18T02:49:03.085Z,41.88
2018-10-18T02:51:33.897Z,39.10
2018-10-18T02:54:04.920Z,43.02
2018-10-18T02:56:35.678Z,41.73
2018-10-18T02:59:06.642Z,38.40
2018-10-18T03:01:37.253Z,38.65
2018-10-18T03:04:07.891Z,40.67
2018-10-18T03:06:38.539Z,40.95
2018-10-18T03:09:10.227Z,40.60
2018-10-18T03:11:41.218Z,38.95
2018-10-18T03:14:12.065Z,42.00
2018-10-18T03:16:42.886Z,41.63
2018-10-18T03:19:13.533Z,40.25
2018-10-18T03:21:44.146Z,40.17
2018-10-18T03:24:14.885Z,41.20
2018-10-18T03:26:45.957Z,40.63
2018-10-18T03:29:16.581Z,42.20
2018-10-18T03:31:47.226Z,43.35
2018-10-18T03:34:18.017Z,46.50
2018-10-18T03:36:48.663Z,45.38
2018-10-18T03:39:19.289Z,45.85
2018-10-18T03:41:49.940Z,46.13
2018-10-18T03:44:20.755Z,45.52
2018-10-18T03:46:51.403Z,44.88
2018-10-18T03:49:22.029Z,45.85
2018-10-18T03:51:52.677Z,46.83
2018-10-18T03:54:23.344Z,48.42
2018-10-18T03:56:53.997Z,47.90
2018-10-18T03:59:25.039Z,47.78
2018-10-18T04:01:55.833Z,46.25
2018-10-18T04:04:26.479Z,51.15
2018-10-18T04:06:57.350Z,49.80
2018-10-18T04:09:27.994Z,49.65
2018-10-18T04:11:58.825Z,51.83
2018-10-18T04:14:29.636Z,48.40
2018-10-18T04:17:00.247Z,50.88
2018-10-18T04:19:32.086Z,50.78
2018-10-18T04:22:02.727Z,56.13
2018-10-18T04:24:33.360Z,50.05
2018-10-18T04:27:04.032Z,57.48
2018-10-18T04:29:34.646Z,59.13
2018-10-18T04:32:06.101Z,60.52
2018-10-18T04:34:36.742Z,57.95
2018-10-18T04:37:07.383Z,57.70
2018-10-18T04:39:37.989Z,58.10
2018-10-18T04:42:08.860Z,59.70
2018-10-18T04:44:39.677Z,55.73
2018-10-18T04:47:10.382Z,60.48
2018-10-18T04:49:41.133Z,58.75
2018-10-18T04:52:11.769Z,50.60
2018-10-18T04:54:42.437Z,55.43
2018-10-18T04:57:13.115Z,58.73
2018-10-18T04:59:43.740Z,59.42
2018-10-18T05:02:14.644Z,56.00
2018-10-18T05:04:56.808Z,54.90
2018-10-18T05:07:27.810Z,54.15
2018-10-18T05:09:58.446Z,52.48
2018-10-18T05:12:29.109Z,56.30
2018-10-18T05:14:59.887Z,47.38
2018-10-18T05:17:30.525Z,59.08
2018-10-18T05:20:01.147Z,51.35
2018-10-18T05:22:31.793Z,52.40
2018-10-18T05:25:02.934Z,48.08
2018-10-18T05:27:33.566Z,49.10
2018-10-18T05:30:04.762Z,59.90
2018-10-18T05:32:35.485Z,54.13
2018-10-18T05:35:06.802Z,52.40
2018-10-18T05:37:37.500Z,46.85
2018-10-18T05:40:08.309Z,49.30
2018-10-18T05:42:38.964Z,50.50
2018-10-18T05:45:09.621Z,47.67
2018-10-18T05:47:40.525Z,48.98
2018-10-18T05:50:11.390Z,48.87
2018-10-18T05:52:42.007Z,50.48
2018-10-18T05:55:13.123Z,52.62
2018-10-18T05:57:43.922Z,47.17
2018-10-18T06:00:16.108Z,47.80
2018-10-18T06:02:47.591Z,52.78
2018-10-18T06:05:18.778Z,55.63
2018-10-18T06:07:49.420Z,50.40
2018-10-18T06:10:31.656Z,55.90
2018-10-18T06:13:02.477Z,47.70
2018-10-18T06:15:33.278Z,51.92
2018-10-18T06:18:03.955Z,53.05
2018-10-18T06:20:34.594Z,54.23
2018-10-18T06:23:06.100Z,55.78
2018-10-18T06:25:37.230Z,57.53
2018-10-18T06:28:08.231Z,52.88
2018-10-18T06:30:38.883Z,47.03
2018-10-18T06:33:09.879Z,48.52
2018-10-18T06:35:40.643Z,48.25
2018-10-18T06:38:11.289Z,46.25
2018-10-18T06:40:42.250Z,44.05
2018-10-18T06:43:12.970Z,42.80
2018-10-18T06:45:43.718Z,43.08
2018-10-18T06:48:14.354Z,43.10
2018-10-18T06:50:45.023Z,40.98
2018-10-18T06:53:15.687Z,40.30
2018-10-18T06:55:46.540Z,42.00
2018-10-18T06:58:17.185Z,39.40
2018-10-18T07:00:47.837Z,36.15
2018-10-18T07:03:18.465Z,39.05
2018-10-18T07:05:49.109Z,41.37
2018-10-18T07:08:19.758Z,40.05
2018-10-18T07:10:50.488Z,37.67
2018-10-18T07:13:21.237Z,42.33
2018-10-18T07:15:51.902Z,37.65
2018-10-18T07:18:22.549Z,35.45
2018-10-18T07:20:53.202Z,36.58
2018-10-18T07:23:23.847Z,38.42
2018-10-18T07:25:54.706Z,36.13
2018-10-18T07:28:25.666Z,38.42
2018-10-18T07:30:56.322Z,35.73
2018-10-18T07:33:26.970Z,36.38
2018-10-18T07:35:57.624Z,35.63
2018-10-18T07:38:28.495Z,36.05
2018-10-18T07:40:59.154Z,36.13
2018-10-18T07:43:30.017Z,40.10
2018-10-18T07:46:00.671Z,37.48
2018-10-18T07:48:31.330Z,37.23
2018-10-18T07:51:01.988Z,34.90
2018-10-18T07:53:32.735Z,32.40
2018-10-18T07:56:03.474Z,37.83
2018-10-18T07:58:34.126Z,36.60
2018-10-18T08:01:05.123Z,38.42
2018-10-18T08:03:35.745Z,35.52
2018-10-18T08:06:06.433Z,37.73
2018-10-18T08:08:37.053Z,36.90
2018-10-18T08:11:07.769Z,41.13
2018-10-18T08:13:38.566Z,38.13
2018-10-18T08:16:09.225Z,40.35
2018-10-18T08:18:40.382Z,37.93
2018-10-18T08:21:11.022Z,39.73
2018-10-18T08:23:41.673Z,41.60
2018-10-18T08:26:12.332Z,37.28
2018-10-18T08:28:42.978Z,36.95
2018-10-18T08:31:13.853Z,39.23
2018-10-18T08:33:44.524Z,38.20
2018-10-18T08:36:15.166Z,37.30
2018-10-18T08:38:45.835Z,34.40
2018-10-18T08:41:16.486Z,36.42
2018-10-18T08:43:47.297Z,38.55
2018-10-18T08:46:18.150Z,35.50
2018-10-18T08:48:48.793Z,38.00
2018-10-18T08:51:19.450Z,36.90
2018-10-18T08:53:50.106Z,38.00
2018-10-18T08:56:20.962Z,37.03
2018-10-18T08:58:51.633Z,35.48
2018-10-18T09:01:22.271Z,35.28
2018-10-18T09:03:53.089Z,36.70
2018-10-18T09:06:23.922Z,36.70
2018-10-18T09:08:54.625Z,35.48
2018-10-18T09:11:25.410Z,38.28
2018-10-18T09:13:56.441Z,35.43
2018-10-18T09:16:27.194Z,38.50
2018-10-18T09:18:57.851Z,36.63
2018-10-18T09:21:28.666Z,35.78
2018-10-18T09:23:59.444Z,37.23
2018-10-18T09:26:30.836Z,34.65
2018-10-18T09:29:01.501Z,36.30
2018-10-18T09:31:32.145Z,34.33
2018-10-18T09:34:02.786Z,38.20
2018-10-18T09:36:33.400Z,36.95
2018-10-18T09:39:05.538Z,36.77
2018-10-18T09:41:36.152Z,38.23
2018-10-18T09:44:07.160Z,38.78
2018-10-18T09:46:38.282Z,41.68
2018-10-18T09:49:08.959Z,39.95
2018-10-18T09:51:39.772Z,36.20
2018-10-18T09:54:10.405Z,37.05
2018-10-18T09:56:41.072Z,38.48
2018-10-18T09:59:11.726Z,35.43
2018-10-18T10:01:47.678Z,38.42
2018-10-18T10:04:18.349Z,39.18
2018-10-18T10:06:49.164Z,35.00
2018-10-18T10:09:19.814Z,35.75
2018-10-18T10:11:50.554Z,33.28
2018-10-18T10:14:21.294Z,36.13
2018-10-18T10:16:51.932Z,35.03
2018-10-18T10:19:23.121Z,35.58
2018-10-18T10:21:53.977Z,32.93
2018-10-18T10:24:24.651Z,33.83
2018-10-18T10:26:55.803Z,35.52
2018-10-18T10:29:26.458Z,35.43
2018-10-18T10:31:57.115Z,32.33
2018-10-18T10:34:27.859Z,31.68
2018-10-18T10:36:58.679Z,28.65
2018-10-18T10:39:29.502Z,30.50
2018-10-18T10:42:00.199Z,31.37
2018-10-18T10:44:31.033Z,32.95
2018-10-18T10:47:01.833Z,32.45
2018-10-18T10:49:32.473Z,32.08
2018-10-18T10:52:03.142Z,31.73
2018-10-18T10:54:33.983Z,30.92
2018-10-18T10:57:05.123Z,30.17
2018-10-18T10:59:35.865Z,29.77
2018-10-18T11:02:07.338Z,28.30
2018-10-18T11:04:38.126Z,27.13
2018-10-18T11:07:09.126Z,27.50
2018-10-18T11:09:39.816Z,26.15
2018-10-18T11:12:10.814Z,24.67
2018-10-18T11:14:41.457Z,23.57
2018-10-18T11:17:12.383Z,23.40
2018-10-18T11:19:43.164Z,24.43
2018-10-18T11:22:13.830Z,24.98
2018-10-18T11:24:44.551Z,24.52
2018-10-18T11:27:15.365Z,25.80
2018-10-18T11:29:46.169Z,25.65
2018-10-18T11:32:16.838Z,25.40
2018-10-18T11:34:47.648Z,25.68
2018-10-18T11:37:18.274Z,25.48
2018-10-18T11:39:48.919Z,26.02
2018-10-18T11:42:19.618Z,25.55
2018-10-18T11:44:50.414Z,25.20
2018-10-18T11:47:21.250Z,23.67
2018-10-18T11:49:51.950Z,23.98
2018-10-18T11:52:22.734Z,25.15
2018-10-18T11:54:53.374Z,26.25
2018-10-18T11:57:24.032Z,21.23
2018-10-18T11:59:54.686Z,24.67
2018-10-18T12:02:25.541Z,23.52
2018-10-18T12:04:56.399Z,23.42
2018-10-18T12:07:27.266Z,21.57
2018-10-18T12:09:57.887Z,24.65
2018-10-18T12:12:28.538Z,24.82
2018-10-18T12:14:59.164Z,23.95
2018-10-18T12:17:29.819Z,23.32
2018-10-18T12:20:00.461Z,23.65
2018-10-18T12:22:31.691Z,23.45
2018-10-18T12:25:02.340Z,22.02
2018-10-18T12:27:32.982Z,22.93
2018-10-18T12:30:04.182Z,22.42
2018-10-18T12:32:34.977Z,22.48
2018-10-18T12:35:06.071Z,21.15
2018-10-18T12:37:37.029Z,22.58
2018-10-18T12:40:09.010Z,20.88
2018-10-18T12:42:41.474Z,21.55
2018-10-18T12:45:13.051Z,20.80
2018-10-18T12:47:43.657Z,20.97
2018-10-18T12:50:14.340Z,18.80
2018-10-18T12:52:45.144Z,20.55
2018-10-18T12:55:16.018Z,19.73
2018-10-18T12:57:46.644Z,19.95
2018-10-18T13:00:17.702Z,19.23
2018-10-18T13:02:48.487Z,19.82
2018-10-18T13:05:19.154Z,19.73
2018-10-18T13:07:49.819Z,21.25
2018-10-18T13:10:20.474Z,18.98
2018-10-18T13:12:51.094Z,21.70
2018-10-18T13:15:22.099Z,19.15
2018-10-18T13:17:52.721Z,21.93
2018-10-18T13:20:23.645Z,20.50
2018-10-18T13:22:54.266Z,19.80
2018-10-18T13:25:25.026Z,21.07
2018-10-18T13:27:55.751Z,19.12
2018-10-18T13:30:26.393Z,19.73
2018-10-18T13:32:57.044Z,19.45
2018-10-18T13:35:27.698Z,20.57
2018-10-18T13:37:58.351Z,21.05
2018-10-18T13:40:29.181Z,21.30
2018-10-18T13:43:00.005Z,20.10
2018-10-18T13:45:30.631Z,17.60
2018-10-18T13:48:01.319Z,20.97
2018-10-18T13:50:32.113Z,20.35
2018-10-18T13:53:02.902Z,20.57
2018-10-18T13:55:33.557Z,20.02
2018-10-18T13:58:04.253Z,20.95
2018-10-18T14:00:34.885Z,20.57
2018-10-18T14:03:06.222Z,19.90
2018-10-18T14:05:36.884Z,23.92
2018-10-18T14:08:08.187Z,22.42
2018-10-18T14:13:15.854Z,22.58
2018-10-18T14:15:46.690Z,22.60
2018-10-18T14:18:17.309Z,20.25
2018-10-18T14:20:47.966Z,22.22
2018-10-18T14:23:19.100Z,22.37
2018-10-18T14:25:49.873Z,19.62
2018-10-18T14:28:20.834Z,20.20
2018-10-18T14:30:51.756Z,22.87
2018-10-18T14:33:22.501Z,21.52
2018-10-18T14:35:53.503Z,20.88
2018-10-18T14:38:24.154Z,19.27
2018-10-18T14:40:55.045Z,19.27
2018-10-18T14:43:25.827Z,20.70
2018-10-18T14:45:56.671Z,19.02
2018-10-18T14:48:27.285Z,19.37
2018-10-18T14:51:01.164Z,19.12
2018-10-18T14:53:31.805Z,18.00
2018-10-18T14:56:02.493Z,17.77
2018-10-18T14:58:33.349Z,17.65
2018-10-18T15:01:04.014Z,16.67
2018-10-18T15:03:34.696Z,18.00
2018-10-18T15:06:05.735Z,16.25
2018-10-18T15:08:36.357Z,15.98
2018-10-18T15:11:07.293Z,15.15
2018-10-18T15:13:38.062Z,15.38
2018-10-18T15:16:08.726Z,14.80
2018-10-18T15:18:39.362Z,15.35
2018-10-18T15:21:10.270Z,15.00
2018-10-18T15:23:40.918Z,14.93
2018-10-18T15:26:11.650Z,13.50
2018-10-18T15:28:42.414Z,12.18
2018-10-18T15:31:13.052Z,11.73
2018-10-18T15:33:43.846Z,11.68
2018-10-18T15:36:14.506Z,10.95
2018-10-18T15:38:45.293Z,10.53
2018-10-18T15:41:16.083Z,11.05
2018-10-18T15:43:46.866Z,10.15
2018-10-18T15:46:17.616Z,9.30
2018-10-18T15:48:48.477Z,8.63
2018-10-18T15:51:19.414Z,9.20
2018-10-18T15:53:50.129Z,9.98
2018-10-18T15:56:20.992Z,9.10
2018-10-18T15:58:51.658Z,7.33
2018-10-18T16:01:22.465Z,8.23
2018-10-18T16:03:53.070Z,8.18
2018-10-18T16:06:23.718Z,8.35
2018-10-18T16:08:54.512Z,8.25
2018-10-18T16:11:25.534Z,7.58
2018-10-18T16:13:56.408Z,8.40
2018-10-18T16:16:27.196Z,8.03
2018-10-18T16:18:57.802Z,7.55
2018-10-18T16:21:28.442Z,7.28
2018-10-18T16:23:59.128Z,7.37
2018-10-18T16:26:30.101Z,7.75
2018-10-18T16:29:01.113Z,8.30
2018-10-18T16:31:32.262Z,7.65
2018-10-18T16:34:02.953Z,7.50
2018-10-18T16:36:33.711Z,8.90
2018-10-18T16:39:07.522Z,9.10
2018-10-18T16:41:38.344Z,8.60
2018-10-18T16:44:09.509Z,8.15
2018-10-18T16:46:40.290Z,7.80
2018-10-18T16:49:10.909Z,8.25
2018-10-18T16:51:41.545Z,7.47
2018-10-18T16:54:12.477Z,8.43
2018-10-18T16:56:43.246Z,8.88
2018-10-18T16:59:13.945Z,8.30
2018-10-18T17:01:44.570Z,7.97
2018-10-18T17:04:15.301Z,8.50
2018-10-18T17:06:46.005Z,7.42
2018-10-18T17:09:16.621Z,7.70
2018-10-18T17:11:47.262Z,8.20
2018-10-18T17:14:18.188Z,6.92
2018-10-18T17:16:48.935Z,7.95
2018-10-18T17:19:19.551Z,8.58
2018-10-18T17:21:50.199Z,8.18
2018-10-18T17:24:20.895Z,6.97
2018-10-18T17:26:51.646Z,9.05
2018-10-18T17:29:22.403Z,7.35
2018-10-18T17:31:53.258Z,8.08
2018-10-18T17:34:24.066Z,8.58
2018-10-18T17:36:54.682Z,8.85
2018-10-18T17:39:25.313Z,8.40
2018-10-18T17:41:55.951Z,9.30
2018-10-18T17:44:26.787Z,9.73
2018-10-18T17:46:57.426Z,8.83
2018-10-18T17:49:28.268Z,9.05
2018-10-18T17:51:58.953Z,8.33
2018-10-18T17:54:29.759Z,10.10
2018-10-18T17:57:00.413Z,10.10
2018-10-18T17:59:31.084Z,10.43
2018-10-18T18:02:01.990Z,10.08
2018-10-18T18:04:32.826Z,10.43
2018-10-18T18:07:03.441Z,10.78
2018-10-18T18:09:34.142Z,10.63
2018-10-18T18:12:05.266Z,10.58
2018-10-18T18:14:36.111Z,9.85
2018-10-18T18:17:06.709Z,10.80
2018-10-18T18:19:38.260Z,10.88
2018-10-18T18:22:10.008Z,10.55
2018-10-18T18:24:41.754Z,10.43
2018-10-18T18:27:13.898Z,10.68
2018-10-18T18:29:45.863Z,10.15
2018-10-18T18:32:17.680Z,10.60
2018-10-18T18:34:49.527Z,10.50
2018-10-18T18:37:20.907Z,10.30
2018-10-18T18:39:51.871Z,11.03
2018-10-18T18:42:23.000Z,9.70
2018-10-18T18:44:58.619Z,9.78
2018-10-18T18:47:30.611Z,10.98
2018-10-18T18:50:01.844Z,10.28
2018-10-18T18:58:14.550Z,11.38
2018-10-18T19:00:45.247Z,10.75
2018-10-18T19:03:15.851Z,10.63
2018-10-18T19:05:46.499Z,10.60
2018-10-18T19:08:17.105Z,11.53
2018-10-18T19:10:47.731Z,10.08
2018-10-18T19:13:18.409Z,10.08
2018-10-18T19:15:49.193Z,10.05
2018-10-18T19:18:19.854Z,10.53
2018-10-18T19:20:50.489Z,10.80
2018-10-18T19:23:21.167Z,10.45
2018-10-18T19:25:52.030Z,10.98
2018-10-18T19:28:23.143Z,10.32
2018-10-18T19:30:53.949Z,10.88
2018-10-18T19:33:24.557Z,9.93
2018-10-18T19:35:55.202Z,10.40
2018-10-18T19:38:26.071Z,9.35
2018-10-18T19:40:57.254Z,9.83
2018-10-18T19:43:27.845Z,9.68
2018-10-18T19:45:58.513Z,10.58
2018-10-18T19:48:29.291Z,9.25
2018-10-18T19:51:00.121Z,9.00
2018-10-18T19:53:30.729Z,9.43
2018-10-18T19:56:01.466Z,10.00
2018-10-18T19:58:32.299Z,9.88
2018-10-18T20:01:03.059Z,10.45
2018-10-18T20:03:33.897Z,8.83
2018-10-18T20:06:03.395Z,10.03
2018-10-18T20:08:34.051Z,9.50
2018-10-18T20:11:04.673Z,10.10
2018-10-18T20:13:35.756Z,9.85
2018-10-18T20:16:06.818Z,10.30
2018-10-18T20:18:37.543Z,10.30
2018-10-18T20:21:08.787Z,9.35
2018-10-18T20:23:39.556Z,9.20
2018-10-18T20:26:10.625Z,9.58
2018-10-18T20:28:41.172Z,9.85
2018-10-18T20:31:11.986Z,10.25
2018-10-18T20:33:42.742Z,9.45
2018-10-18T20:36:15.533Z,9.63
2018-10-18T20:38:46.190Z,10.48
2018-10-18T20:41:17.155Z,10.90
2018-10-18T20:43:47.879Z,9.60
2018-10-18T20:46:18.903Z,9.03
2018-10-18T20:48:49.539Z,9.68
2018-10-18T20:51:20.402Z,9.20
2018-10-18T20:53:51.010Z,10.15
2018-10-18T20:56:21.661Z,10.00
2018-10-18T20:58:52.331Z,9.70
2018-10-18T21:01:22.959Z,9.03
2018-10-18T21:03:53.562Z,9.38
2018-10-18T21:06:24.306Z,9.23
2018-10-18T21:08:55.041Z,9.13
2018-10-18T21:11:25.886Z,9.20
2018-10-18T21:13:56.497Z,10.20
2018-10-18T21:16:27.118Z,9.28
2018-10-18T21:18:57.720Z,9.23
2018-10-18T21:21:28.349Z,9.30
2018-10-18T21:23:59.085Z,9.18
2018-10-18T21:26:29.772Z,10.55
2018-10-18T21:29:00.393Z,10.00
2018-10-18T21:31:31.247Z,10.15
2018-10-18T21:34:01.891Z,9.75
2018-10-18T21:36:39.306Z,10.13
2018-10-18T21:39:09.949Z,10.70
2018-10-18T21:41:47.283Z,9.95
2018-10-18T21:44:17.884Z,9.43
2018-10-18T21:46:48.530Z,9.55
2018-10-18T21:49:19.165Z,8.63
2018-10-18T21:51:51.317Z,8.88
2018-10-18T21:54:23.479Z,9.18
2018-10-18T21:56:55.429Z,9.05
2018-10-18T21:59:27.783Z,11.00
2018-10-18T22:01:59.888Z,9.45
2018-10-18T22:04:30.881Z,9.70
2018-10-18T22:07:01.481Z,9.40
2018-10-18T22:09:32.105Z,8.53
2018-10-18T22:12:02.719Z,10.75
2018-10-18T22:14:33.707Z,10.95
2018-10-18T22:17:05.302Z,9.60
2018-10-18T22:19:36.104Z,9.90
2018-10-18T22:22:06.778Z,9.28
2018-10-18T22:24:37.391Z,9.50
2018-10-18T22:27:08.069Z,10.38
2018-10-18T22:29:45.421Z,10.23
2018-10-18T22:32:16.082Z,8.95
2018-10-18T22:34:46.727Z,9.45
2018-10-18T22:37:17.418Z,10.05
2018-10-18T22:39:48.174Z,9.63
2018-10-18T22:42:19.181Z,9.20
2018-10-18T22:44:49.793Z,10.38
2018-10-18T22:47:20.441Z,10.00
2018-10-18T22:49:51.043Z,9.08
2018-10-18T22:52:21.689Z,10.18
2018-10-18T22:57:29.402Z,9.55
2018-10-18T23:00:00.007Z,8.65
2018-10-18T23:02:30.646Z,9.35
2018-10-18T23:05:01.303Z,9.68
2018-10-18T23:07:32.567Z,9.53
2018-10-18T23:10:03.723Z,9.33
2018-10-18T23:12:34.354Z,8.78
2018-10-18T23:15:06.771Z,10.50
2018-10-18T23:17:37.950Z,9.35
2018-10-18T23:20:09.617Z,9.70
2018-10-18T23:22:40.243Z,9.38
2018-10-18T23:25:10.849Z,9.85
2018-10-18T23:27:41.474Z,9.88
2018-10-18T23:30:12.085Z,10.13
2018-10-18T23:32:42.738Z,10.15
2018-10-18T23:35:13.415Z,9.90
2018-10-18T23:37:44.206Z,10.23
2018-10-18T23:40:15.035Z,10.45
2018-10-18T23:42:45.642Z,10.05
2018-10-18T23:45:16.382Z,9.95
2018-10-18T23:47:47.114Z,9.35
2018-10-18T23:50:17.954Z,9.80
2018-10-18T23:52:48.586Z,9.70
2018-10-18T23:55:19.241Z,9.65
2018-10-18T23:57:50.256Z,9.78
